Time;durP1;ratioP1;P1;durP2;ratioP2;P2;SDS_P1;SDS_P2;PMS_P1;PMS_P2;Temp;Humidity;BMP_temperature;BMP_pressure;BME280_temperature;BME280_humidity;BME280_pressure;Samples;Min_cycle;Max_cycle;Signal;HPM_P1;HPM_P2
2022/10/14 00:00:18;;;;;;;81.53;43.27;;;;;;;;;;4995959;28;20468;-90
2022/10/14 00:02:44;;;;;;;112.15;48.65;;;;;;;;;;4994932;28;20511;-90
2022/10/14 00:05:11;;;;;;;120.87;47.63;;;;;;;;;;4994737;28;20464;-78
2022/10/14 00:07:37;;;;;;;130.15;47.20;;;;;;;;;;4995628;28;20420;-77
2022/10/14 00:10:04;;;;;;;143.00;48.40;;;;;;;;;;4989095;28;20461;-78
2022/10/14 00:12:30;;;;;;;98.93;45.03;;;;;;;;;;4994705;28;20444;-78
2022/10/14 00:14:56;;;;;;;107.75;44.20;;;;;;;;;;4978747;28;20417;-78
2022/10/14 00:17:22;;;;;;;97.70;45.40;;;;;;;;;;4995224;28;20408;-78
2022/10/14 00:19:48;;;;;;;150.23;51.67;;;;;;;;;;4977896;28;20448;-78
2022/10/14 00:22:14;;;;;;;546.30;66.30;;;;;;;;;;4994026;28;20436;-81
2022/10/14 00:24:40;;;;;;;288.60;61.17;;;;;;;;;;4994646;28;20451;-82
2022/10/14 00:27:06;;;;;;;552.88;67.35;;;;;;;;;;4994088;28;20514;-81
2022/10/14 00:29:32;;;;;;;359.77;60.43;;;;;;;;;;4975036;28;20559;-81
2022/10/14 00:31:58;;;;;;;396.17;58.85;;;;;;;;;;4985527;28;20516;-81
2022/10/14 00:34:24;;;;;;;628.75;57.80;;;;;;;;;;4994433;28;20483;-81
2022/10/14 00:36:50;;;;;;;559.00;58.67;;;;;;;;;;4994100;28;20404;-81
2022/10/14 00:39:17;;;;;;;705.23;53.43;;;;;;;;;;4978440;28;20527;-81
2022/10/14 00:41:44;;;;;;;574.13;55.97;;;;;;;;;;4995177;28;20409;-81
2022/10/14 00:44:10;;;;;;;723.03;52.85;;;;;;;;;;4995104;28;20416;-81
2022/10/14 00:46:37;;;;;;;516.10;37.27;;;;;;;;;;4994736;28;20174;-81
2022/10/14 00:49:23;;;;;;;492.57;39.23;;;;;;;;;;4996086;28;20183;-81
2022/10/14 00:52:10;;;;;;;336.35;42.90;;;;;;;;;;4993801;28;20432;-81
2022/10/14 00:54:41;;;;;;;356.25;44.85;;;;;;;;;;4989469;28;20456;-81
2022/10/14 00:57:08;;;;;;;490.77;40.08;;;;;;;;;;4977490;28;20477;-80
2022/10/14 00:59:34;;;;;;;488.83;42.33;;;;;;;;;;4985173;28;20424;-78
2022/10/14 01:02:00;;;;;;;456.95;40.03;;;;;;;;;;4990984;28;20440;-77
2022/10/14 01:04:26;;;;;;;459.83;42.13;;;;;;;;;;4977505;28;20490;-78
2022/10/14 01:06:58;;;;;;;483.27;44.05;;;;;;;;;;4993955;28;20463;-78
2022/10/14 01:09:47;;;;;;;522.72;43.80;;;;;;;;;;4993377;28;20420;-77
2022/10/14 01:12:13;;;;;;;460.07;43.93;;;;;;;;;;4990645;28;20516;-81
2022/10/14 01:14:48;;;;;;;589.63;48.10;;;;;;;;;;4993227;28;20432;-81
2022/10/14 01:17:33;;;;;;;506.02;48.85;;;;;;;;;;4993334;28;20458;-81
2022/10/14 01:20:17;;;;;;;578.92;51.17;;;;;;;;;;4978206;28;20479;-81
2022/10/14 01:22:52;;;;;;;479.85;46.65;;;;;;;;;;4993404;28;20449;-82
2022/10/14 01:25:23;;;;;;;458.77;44.88;;;;;;;;;;4993083;28;20516;-82
2022/10/14 01:27:49;;;;;;;362.63;44.08;;;;;;;;;;4988956;28;20408;-81
2022/10/14 01:30:19;;;;;;;403.25;40.67;;;;;;;;;;4994409;28;20416;-81
2022/10/14 01:32:48;;;;;;;309.05;40.95;;;;;;;;;;4992867;28;20490;-81
2022/10/14 01:35:24;;;;;;;428.77;42.92;;;;;;;;;;4993089;28;20417;-81
2022/10/14 01:37:56;;;;;;;559.47;41.20;;;;;;;;;;4994039;28;20443;-81
2022/10/14 01:40:28;;;;;;;335.40;39.47;;;;;;;;;;4993099;28;20499;-80
2022/10/14 01:42:55;;;;;;;388.65;37.50;;;;;;;;;;4992977;28;20412;-80
2022/10/14 01:45:22;;;;;;;344.80;38.78;;;;;;;;;;4992927;28;20446;-90
2022/10/14 01:47:49;;;;;;;397.52;40.30;;;;;;;;;;4988000;28;20429;-90
2022/10/14 01:50:16;;;;;;;357.88;39.95;;;;;;;;;;4986570;28;20440;-89
2022/10/14 01:53:05;;;;;;;385.58;40.53;;;;;;;;;;4999206;28;20434;-90
2022/10/14 01:55:35;;;;;;;339.17;41.22;;;;;;;;;;4985291;28;20401;-90
2022/10/14 01:58:01;;;;;;;207.18;37.72;;;;;;;;;;4992429;28;20432;-90
2022/10/14 02:00:27;;;;;;;156.10;36.35;;;;;;;;;;4993015;28;20413;-90
2022/10/14 02:02:53;;;;;;;119.60;36.13;;;;;;;;;;4992463;28;20487;-81
2022/10/14 02:05:41;;;;;;;134.13;36.47;;;;;;;;;;4976320;28;20421;-81
2022/10/14 02:08:25;;;;;;;195.30;38.40;;;;;;;;;;4992615;28;20475;-81
2022/10/14 02:10:51;;;;;;;134.97;36.30;;;;;;;;;;4990617;28;20424;-81
2022/10/14 02:13:17;;;;;;;170.63;39.77;;;;;;;;;;4992231;28;20464;-81
2022/10/14 02:15:43;;;;;;;185.48;39.13;;;;;;;;;;4991172;28;20452;-81
2022/10/14 02:18:12;;;;;;;218.50;39.72;;;;;;;;;;4993512;28;20400;-81
2022/10/14 02:20:45;;;;;;;115.25;37.13;;;;;;;;;;4992075;28;20420;-81
2022/10/14 02:23:14;;;;;;;218.70;42.33;;;;;;;;;;4975329;28;20527;-81
2022/10/14 02:25:40;;;;;;;183.77;39.60;;;;;;;;;;4984172;28;20507;-81
2022/10/14 02:28:08;;;;;;;126.55;38.00;;;;;;;;;;4992525;28;20447;-81
2022/10/14 02:30:37;;;;;;;366.75;42.42;;;;;;;;;;4989515;28;20479;-90
2022/10/14 02:33:05;;;;;;;338.40;42.40;;;;;;;;;;4992486;28;20518;-90
2022/10/14 02:35:31;;;;;;;155.65;38.85;;;;;;;;;;4992547;28;20415;-81
2022/10/14 02:37:58;;;;;;;270.55;43.17;;;;;;;;;;4992155;28;20412;-81
2022/10/14 02:40:29;;;;;;;227.15;40.13;;;;;;;;;;4993278;28;20425;-81
2022/10/14 02:42:55;;;;;;;251.73;41.95;;;;;;;;;;4993350;28;20411;-81
2022/10/14 02:45:23;;;;;;;141.45;38.45;;;;;;;;;;4992582;28;20512;-81
2022/10/14 02:47:49;;;;;;;137.27;40.67;;;;;;;;;;4993759;28;20419;-81
2022/10/14 02:50:17;;;;;;;191.90;38.17;;;;;;;;;;4992011;28;20436;-81
2022/10/14 02:52:43;;;;;;;203.45;40.38;;;;;;;;;;4992145;28;20449;-78
2022/10/14 02:55:09;;;;;;;181.27;38.67;;;;;;;;;;4976024;28;20448;-78
2022/10/14 02:57:36;;;;;;;196.82;40.30;;;;;;;;;;4976236;28;20421;-78
2022/10/14 03:00:03;;;;;;;253.70;41.43;;;;;;;;;;4993145;28;20463;-78
2022/10/14 03:02:29;;;;;;;210.85;40.10;;;;;;;;;;4993302;28;20416;-78
2022/10/14 03:04:56;;;;;;;260.20;41.75;;;;;;;;;;4992729;28;20424;-78
2022/10/14 03:07:22;;;;;;;215.93;42.00;;;;;;;;;;4976803;28;20416;-89
2022/10/14 03:09:48;;;;;;;306.00;44.55;;;;;;;;;;4993321;28;20432;-89
2022/10/14 03:12:14;;;;;;;154.30;40.43;;;;;;;;;;4979509;28;20514;-89
2022/10/14 03:14:40;;;;;;;143.45;40.88;;;;;;;;;;4995754;28;20543;-89
2022/10/14 03:17:07;;;;;;;227.40;47.35;;;;;;;;;;4995413;28;20523;-90
2022/10/14 03:19:33;;;;;;;165.60;45.13;;;;;;;;;;4995803;28;20554;-90
2022/10/14 03:21:59;;;;;;;201.05;47.30;;;;;;;;;;4995334;28;20436;-88
2022/10/14 03:24:25;;;;;;;224.98;49.83;;;;;;;;;;4994130;28;20428;-81
2022/10/14 03:26:51;;;;;;;171.38;48.35;;;;;;;;;;4995254;28;20443;-81
2022/10/14 03:29:17;;;;;;;223.00;50.80;;;;;;;;;;4976223;28;20545;-80
2022/10/14 03:31:43;;;;;;;243.35;50.92;;;;;;;;;;4991703;28;20527;-80
2022/10/14 03:34:09;;;;;;;210.90;49.27;;;;;;;;;;4975670;28;20446;-80
2022/10/14 03:36:35;;;;;;;282.40;51.30;;;;;;;;;;4976025;28;20413;-81
2022/10/14 03:39:01;;;;;;;228.23;50.45;;;;;;;;;;4990424;28;20421;-81
2022/10/14 03:41:27;;;;;;;245.80;51.47;;;;;;;;;;4996350;28;20487;-90
2022/10/14 03:43:53;;;;;;;215.18;50.95;;;;;;;;;;4975970;28;20434;-89
2022/10/14 03:46:19;;;;;;;253.13;52.72;;;;;;;;;;4991830;28;20421;-89
2022/10/14 03:48:45;;;;;;;188.43;48.70;;;;;;;;;;4996285;28;20421;-90
2022/10/14 03:51:11;;;;;;;183.82;50.67;;;;;;;;;;4995168;28;20475;-89
2022/10/14 03:53:37;;;;;;;202.60;51.20;;;;;;;;;;4978555;28;20413;-81
2022/10/14 03:56:03;;;;;;;158.52;49.42;;;;;;;;;;4994821;28;20419;-81
2022/10/14 03:58:29;;;;;;;187.95;49.78;;;;;;;;;;4995938;28;20425;-89
2022/10/14 04:00:55;;;;;;;152.07;48.53;;;;;;;;;;4979045;28;20416;-89
2022/10/14 04:03:21;;;;;;;187.67;50.37;;;;;;;;;;4978795;28;20436;-89
2022/10/14 04:05:47;;;;;;;155.32;49.03;;;;;;;;;;4994716;28;20436;-89
2022/10/14 04:08:13;;;;;;;130.55;47.13;;;;;;;;;;4994803;28;20409;-90
2022/10/14 04:10:39;;;;;;;156.73;47.72;;;;;;;;;;4995348;28;20417;-89
2022/10/14 04:13:05;;;;;;;171.77;49.00;;;;;;;;;;4978544;28;20441;-89
2022/10/14 04:15:31;;;;;;;150.18;49.65;;;;;;;;;;4994829;28;20437;-80
2022/10/14 04:17:57;;;;;;;138.13;48.80;;;;;;;;;;4978480;28;20431;-80
2022/10/14 04:20:23;;;;;;;126.17;48.27;;;;;;;;;;4974648;28;20429;-80
2022/10/14 04:22:49;;;;;;;121.30;47.97;;;;;;;;;;4978159;28;20479;-80
2022/10/14 04:25:15;;;;;;;119.25;47.47;;;;;;;;;;4978297;28;20453;-81
2022/10/14 04:27:41;;;;;;;122.43;47.38;;;;;;;;;;4994363;28;20427;-81
2022/10/14 04:30:08;;;;;;;114.75;47.03;;;;;;;;;;4977857;28;20444;-81
2022/10/14 04:32:34;;;;;;;122.90;48.42;;;;;;;;;;4995373;28;20486;-81
2022/10/14 04:34:59;;;;;;;139.90;50.03;;;;;;;;;;4977778;28;20531;-81
2022/10/14 04:37:25;;;;;;;112.68;46.90;;;;;;;;;;4978074;28;20416;-81
2022/10/14 04:39:51;;;;;;;119.33;48.07;;;;;;;;;;4994612;28;20424;-81
2022/10/14 04:42:17;;;;;;;50.57;30.20;;;;;;;;;;4977940;28;20531;-81
2022/10/14 04:44:43;;;;;;;93.57;45.35;;;;;;;;;;4993814;28;20471;-81
2022/10/14 04:47:09;;;;;;;101.72;47.10;;;;;;;;;;4977961;28;20409;-81
2022/10/14 04:49:35;;;;;;;91.03;46.00;;;;;;;;;;4978242;28;20432;-90
2022/10/14 04:52:01;;;;;;;93.53;46.10;;;;;;;;;;4993984;28;20502;-91
2022/10/14 04:54:27;;;;;;;103.38;47.70;;;;;;;;;;4993992;28;20409;-90
2022/10/14 04:56:53;;;;;;;115.75;49.05;;;;;;;;;;4994150;28;20441;-89
2022/10/14 04:59:19;;;;;;;100.30;48.50;;;;;;;;;;4994019;28;20495;-90
2022/10/14 05:01:45;;;;;;;106.27;49.07;;;;;;;;;;4993977;28;20423;-90
2022/10/14 05:04:11;;;;;;;107.43;50.03;;;;;;;;;;5001676;22;20396;-80
2022/10/14 05:06:38;;;;;;;122.43;51.67;;;;;;;;;;4995069;28;20428;-82
2022/10/14 05:09:04;;;;;;;136.98;53.30;;;;;;;;;;4993973;28;20485;-81
2022/10/14 05:11:30;;;;;;;133.93;53.30;;;;;;;;;;4994668;28;20414;-81
2022/10/14 05:13:56;;;;;;;118.30;52.33;;;;;;;;;;4990675;28;20501;-81
2022/10/14 05:16:22;;;;;;;138.15;56.13;;;;;;;;;;4989785;28;20459;-81
2022/10/14 05:18:48;;;;;;;126.55;55.10;;;;;;;;;;4995354;28;20458;-81
2022/10/14 05:21:14;;;;;;;136.48;55.75;;;;;;;;;;5012749;28;20415;-81
2022/10/14 05:23:40;;;;;;;142.65;55.95;;;;;;;;;;5013188;28;20487;-82
2022/10/14 05:26:09;;;;;;;128.47;56.20;;;;;;;;;;4982084;28;20589;-81
2022/10/14 05:28:36;;;;;;;121.55;53.00;;;;;;;;;;4993827;28;20436;-81
2022/10/14 05:31:03;;;;;;;107.97;45.40;;;;;;;;;;4994496;28;20174;-81
2022/10/14 05:33:29;;;;;;;93.00;43.83;;;;;;;;;;4993123;28;20218;-82
2022/10/14 05:35:55;;;;;;;112.82;52.95;;;;;;;;;;4993547;28;20424;-90
2022/10/14 05:38:21;;;;;;;115.50;54.42;;;;;;;;;;4998395;28;20421;-82
2022/10/14 05:40:54;;;;;;;128.85;56.50;;;;;;;;;;5008355;28;20412;-78
2022/10/14 05:43:20;;;;;;;126.30;57.33;;;;;;;;;;4992757;28;20416;-78
2022/10/14 05:45:47;;;;;;;157.63;60.78;;;;;;;;;;4978546;28;20433;-78
2022/10/14 05:48:13;;;;;;;161.73;61.50;;;;;;;;;;4993043;28;20412;-78
2022/10/14 05:50:39;;;;;;;145.40;59.38;;;;;;;;;;4992845;28;20405;-78
2022/10/14 05:53:05;;;;;;;125.30;56.13;;;;;;;;;;4992987;28;20435;-78
2022/10/14 05:55:31;;;;;;;162.70;62.83;;;;;;;;;;4993159;28;20415;-81
2022/10/14 05:57:57;;;;;;;157.32;63.85;;;;;;;;;;4992992;28;20432;-81
2022/10/14 06:00:23;;;;;;;154.52;62.95;;;;;;;;;;4985130;28;20431;-82
2022/10/14 06:02:49;;;;;;;159.93;63.20;;;;;;;;;;5012576;28;20430;-81
2022/10/14 06:05:16;;;;;;;149.77;64.00;;;;;;;;;;4992643;28;20475;-81
2022/10/14 06:07:42;;;;;;;162.02;65.65;;;;;;;;;;4993778;28;20411;-81
2022/10/14 06:10:09;;;;;;;128.80;52.20;;;;;;;;;;4999058;28;20212;-81
2022/10/14 06:12:35;;;;;;;137.63;51.50;;;;;;;;;;5007779;28;20231;-78
2022/10/14 06:15:01;;;;;;;136.57;49.67;;;;;;;;;;4996282;28;20273;-78
2022/10/14 06:17:28;;;;;;;119.77;48.03;;;;;;;;;;4984077;28;20261;-78
2022/10/14 06:19:54;;;;;;;107.77;46.70;;;;;;;;;;4994008;28;20184;-82
2022/10/14 06:22:20;;;;;;;127.30;48.40;;;;;;;;;;4993643;28;20189;-82
2022/10/14 06:24:46;;;;;;;128.50;47.37;;;;;;;;;;4994670;28;20197;-82
2022/10/14 06:27:12;;;;;;;119.53;48.93;;;;;;;;;;5005393;28;20194;-82
2022/10/14 06:29:38;;;;;;;123.57;47.27;;;;;;;;;;5013492;28;20200;-81
2022/10/14 06:32:08;;;;;;;104.63;45.97;;;;;;;;;;4997154;28;20216;-89
2022/10/14 06:34:34;;;;;;;94.50;44.27;;;;;;;;;;5000550;28;20178;-90
2022/10/14 06:37:00;;;;;;;87.00;43.30;;;;;;;;;;4994855;28;20185;-90
2022/10/14 06:39:26;;;;;;;83.00;42.43;;;;;;;;;;4994846;28;20180;-89
2022/10/14 06:41:53;;;;;;;85.40;43.20;;;;;;;;;;4993918;28;20276;-90
2022/10/14 06:44:19;;;;;;;79.67;41.17;;;;;;;;;;5015216;28;20264;-81
2022/10/14 06:46:45;;;;;;;85.03;42.97;;;;;;;;;;5016626;28;20181;-80
2022/10/14 06:49:12;;;;;;;83.20;42.13;;;;;;;;;;4996430;28;20240;-80
2022/10/14 06:51:38;;;;;;;88.33;43.13;;;;;;;;;;4988398;28;20221;-80
2022/10/14 06:54:04;;;;;;;89.33;42.40;;;;;;;;;;4981531;28;20210;-81
2022/10/14 06:56:31;;;;;;;85.90;41.93;;;;;;;;;;4991824;28;20185;-81
2022/10/14 06:58:57;;;;;;;74.30;40.20;;;;;;;;;;4993243;28;20194;-81
2022/10/14 07:01:23;;;;;;;84.57;42.33;;;;;;;;;;4995176;28;20190;-80
2022/10/14 07:03:49;;;;;;;88.00;42.60;;;;;;;;;;4978858;28;20175;-81
2022/10/14 07:06:15;;;;;;;83.30;41.30;;;;;;;;;;5004291;28;20309;-81
2022/10/14 07:08:41;;;;;;;80.37;40.47;;;;;;;;;;4997122;28;20198;-80
2022/10/14 07:11:08;;;;;;;78.70;39.87;;;;;;;;;;4977556;28;20195;-81
2022/10/14 07:13:34;;;;;;;81.07;40.60;;;;;;;;;;4995109;28;20217;-82
2022/10/14 07:16:00;;;;;;;74.40;38.07;;;;;;;;;;4980707;28;20213;-82
2022/10/14 07:18:26;;;;;;;74.53;38.37;;;;;;;;;;4997476;28;20213;-78
2022/10/14 07:20:52;;;;;;;71.67;37.30;;;;;;;;;;4996460;28;20190;-78
2022/10/14 07:23:18;;;;;;;73.70;37.57;;;;;;;;;;4988744;28;20190;-78
2022/10/14 07:25:44;;;;;;;71.10;35.27;;;;;;;;;;4994680;28;20194;-78
2022/10/14 07:28:10;;;;;;;66.40;35.60;;;;;;;;;;4998183;28;20178;-78
2022/10/14 07:30:36;;;;;;;74.87;35.83;;;;;;;;;;5000040;28;20265;-77
2022/10/14 07:33:02;;;;;;;60.70;33.87;;;;;;;;;;4996883;28;20226;-78
2022/10/14 07:35:28;;;;;;;65.43;33.40;;;;;;;;;;4980437;28;20208;-81
2022/10/14 07:37:55;;;;;;;72.10;41.15;;;;;;;;;;4979510;28;20431;-81
2022/10/14 07:40:21;;;;;;;60.47;32.77;;;;;;;;;;4996305;28;20197;-81
2022/10/14 07:42:47;;;;;;;57.43;30.20;;;;;;;;;;4995867;28;20189;-81
2022/10/14 07:45:15;;;;;;;60.03;31.10;;;;;;;;;;4980128;28;20186;-81
2022/10/14 07:47:42;;;;;;;55.37;30.03;;;;;;;;;;5001196;28;20185;-81
2022/10/14 07:50:08;;;;;;;53.03;28.30;;;;;;;;;;4984605;28;20197;-80
2022/10/14 07:52:34;;;;;;;55.73;29.30;;;;;;;;;;4977839;28;20261;-80
2022/10/14 07:55:00;;;;;;;53.30;28.63;;;;;;;;;;4990446;28;20194;-81
2022/10/14 07:57:27;;;;;;;51.57;29.27;;;;;;;;;;4987391;28;20187;-80
2022/10/14 07:59:53;;;;;;;51.80;29.23;;;;;;;;;;4991743;28;20213;-81
2022/10/14 08:02:19;;;;;;;48.23;29.10;;;;;;;;;;4992596;28;20186;-80
2022/10/14 08:04:46;;;;;;;50.27;28.57;;;;;;;;;;4981273;28;20185;-81
2022/10/14 08:07:15;;;;;;;49.43;28.33;;;;;;;;;;4996672;28;20221;-81
2022/10/14 08:09:41;;;;;;;47.40;28.53;;;;;;;;;;4996726;28;20224;-82
2022/10/14 08:12:07;;;;;;;42.63;27.30;;;;;;;;;;4997000;28;20236;-82
2022/10/14 08:14:33;;;;;;;46.40;28.17;;;;;;;;;;4991354;28;20183;-82
2022/10/14 08:16:59;;;;;;;44.30;27.93;;;;;;;;;;5005316;28;20189;-82
2022/10/14 08:19:25;;;;;;;43.30;27.63;;;;;;;;;;5005603;28;20182;-82
2022/10/14 08:21:52;;;;;;;43.03;27.93;;;;;;;;;;4979688;28;20186;-82
2022/10/14 08:24:18;;;;;;;43.33;28.10;;;;;;;;;;4982004;28;20186;-81
2022/10/14 08:26:52;;;;;;;43.70;27.63;;;;;;;;;;4979411;28;20272;-89
2022/10/14 08:29:18;;;;;;;44.53;28.27;;;;;;;;;;4995687;28;20181;-89
2022/10/14 08:31:45;;;;;;;38.13;26.87;;;;;;;;;;4995414;28;20205;-90
2022/10/14 08:34:11;;;;;;;39.33;26.20;;;;;;;;;;4976431;28;20312;-89
2022/10/14 08:36:37;;;;;;;38.17;27.00;;;;;;;;;;4995146;28;20186;-89
2022/10/14 08:39:05;;;;;;;40.47;27.43;;;;;;;;;;4995772;28;20205;-89
2022/10/14 08:41:40;;;;;;;36.07;27.43;;;;;;;;;;4996880;28;20260;-82
2022/10/14 08:44:22;;;;;;;38.53;27.77;;;;;;;;;;4996254;28;20192;-82
2022/10/14 08:46:47;;;;;;;40.50;27.60;;;;;;;;;;4995329;28;20178;-82
2022/10/14 08:49:32;;;;;;;41.17;27.80;;;;;;;;;;5011449;28;20181;-82
2022/10/14 08:52:12;;;;;;;38.23;25.87;;;;;;;;;;5000824;28;20233;-82
2022/10/14 08:54:47;;;;;;;36.67;28.58;;;;;;;;;;5009632;28;20479;-82
2022/10/14 08:57:16;;;;;;;33.43;25.23;;;;;;;;;;4994850;28;20189;-82
2022/10/14 08:59:42;;;;;;;33.47;24.97;;;;;;;;;;4983295;28;20207;-82
2022/10/14 09:02:17;;;;;;;34.13;24.43;;;;;;;;;;5020114;28;20194;-82
2022/10/14 09:04:43;;;;;;;30.07;23.13;;;;;;;;;;4993832;28;20173;-82
2022/10/14 09:07:12;;;;;;;30.17;22.67;;;;;;;;;;4978535;28;20201;-82
2022/10/14 09:09:43;;;;;;;32.20;23.27;;;;;;;;;;4994769;28;20193;-82
2022/10/14 09:12:13;;;;;;;30.27;23.13;;;;;;;;;;4994576;28;20214;-81
2022/10/14 09:14:43;;;;;;;28.83;21.83;;;;;;;;;;4994849;28;20174;-78
2022/10/14 09:17:29;;;;;;;27.57;20.93;;;;;;;;;;4995856;28;20228;-78
2022/10/14 09:20:14;;;;;;;29.20;21.03;;;;;;;;;;4995199;28;20190;-88
2022/10/14 09:22:41;;;;;;;28.13;22.43;;;;;;;;;;4995823;28;20268;-89
2022/10/14 09:25:25;;;;;;;24.60;20.97;;;;;;;;;;4994956;28;20186;-88
2022/10/14 09:27:51;;;;;;;26.33;21.23;;;;;;;;;;4995265;28;20249;-88
2022/10/14 09:30:17;;;;;;;27.43;20.77;;;;;;;;;;4994802;28;20186;-89
2022/10/14 09:32:48;;;;;;;26.47;20.63;;;;;;;;;;4978282;28;20360;-82
2022/10/14 09:35:18;;;;;;;24.43;19.93;;;;;;;;;;4994613;28;20178;-82
2022/10/14 09:37:44;;;;;;;24.30;19.50;;;;;;;;;;4995476;28;20197;-82
2022/10/14 09:40:17;;;;;;;24.00;20.13;;;;;;;;;;4978263;28;20264;-82
2022/10/14 09:42:49;;;;;;;24.37;20.77;;;;;;;;;;4994248;28;20182;-82
2022/10/14 09:45:17;;;;;;;23.23;20.73;;;;;;;;;;4995254;28;20186;-82
2022/10/14 09:47:57;;;;;;;23.27;20.43;;;;;;;;;;4995352;28;20178;-78
2022/10/14 09:50:24;;;;;;;27.37;21.23;;;;;;;;;;4995197;28;20213;-78
2022/10/14 09:53:00;;;;;;;25.43;21.40;;;;;;;;;;4994111;28;20394;-78
2022/10/14 09:55:26;;;;;;;27.33;21.60;;;;;;;;;;4993964;28;20188;-78
2022/10/14 09:58:13;;;;;;;23.07;20.60;;;;;;;;;;4977791;28;20178;-78
2022/10/14 10:00:39;;;;;;;24.47;20.33;;;;;;;;;;4994750;28;20194;-78
2022/10/14 10:03:06;;;;;;;23.23;20.03;;;;;;;;;;4977945;28;20600;-78
2022/10/14 10:05:33;;;;;;;23.83;20.43;;;;;;;;;;4977596;28;20297;-78
2022/10/14 10:08:01;;;;;;;24.10;20.20;;;;;;;;;;4993964;28;20185;-78
2022/10/14 10:10:30;;;;;;;21.43;19.23;;;;;;;;;;4993774;28;20174;-78
2022/10/14 10:12:57;;;;;;;20.27;18.27;;;;;;;;;;4993960;28;20218;-78
2022/10/14 10:15:23;;;;;;;21.20;18.47;;;;;;;;;;4993715;28;20205;-78
2022/10/14 10:17:49;;;;;;;20.73;18.57;;;;;;;;;;4977995;28;20178;-78
2022/10/14 10:20:18;;;;;;;18.17;16.40;;;;;;;;;;4997043;28;20190;-78
2022/10/14 10:22:45;;;;;;;18.63;16.83;;;;;;;;;;4994979;28;20181;-78
2022/10/14 10:25:17;;;;;;;18.43;16.43;;;;;;;;;;4995108;28;20221;-77
2022/10/14 10:27:47;;;;;;;19.23;17.23;;;;;;;;;;4993111;28;20217;-78
2022/10/14 10:30:28;;;;;;;17.80;16.10;;;;;;;;;;5000818;28;20206;-78
2022/10/14 10:32:54;;;;;;;18.20;16.60;;;;;;;;;;4993294;28;20229;-78
2022/10/14 10:35:37;;;;;;;17.90;16.00;;;;;;;;;;4994630;28;20209;-78
2022/10/14 10:38:19;;;;;;;17.20;15.60;;;;;;;;;;4994191;28;20213;-88
2022/10/14 10:40:57;;;;;;;17.87;16.27;;;;;;;;;;4994563;28;20202;-78
2022/10/14 10:43:35;;;;;;;17.53;15.93;;;;;;;;;;4993496;28;20188;-78
2022/10/14 10:46:27;;;;;;;17.80;16.17;;;;;;;;;;4993744;28;20228;-79
2022/10/14 10:48:53;;;;;;;17.67;16.07;;;;;;;;;;4993250;28;20196;-78
2022/10/14 10:51:21;;;;;;;17.97;16.27;;;;;;;;;;4983750;28;20255;-78
2022/10/14 10:54:05;;;;;;;17.87;16.17;;;;;;;;;;5011365;28;20224;-78
2022/10/14 10:56:43;;;;;;;17.70;16.00;;;;;;;;;;5000639;28;20193;-80
2022/10/14 10:59:09;;;;;;;17.80;16.13;;;;;;;;;;4999496;28;20177;-80
2022/10/14 11:01:38;;;;;;;19.35;17.45;;;;;;;;;;5006066;28;20447;-80
2022/10/14 11:04:07;;;;;;;17.50;15.93;;;;;;;;;;4992913;28;20268;-80
2022/10/14 11:12:38;;;;;;;18.27;16.52;;;;;;;;;;4973936;28;20455;-82
2022/10/14 11:15:04;;;;;;;16.75;15.35;;;;;;;;;;4979320;28;20411;-89
2022/10/14 11:17:41;;;;;;;14.53;13.33;;;;;;;;;;5004824;28;20186;-88
2022/10/14 11:20:14;;;;;;;14.57;13.23;;;;;;;;;;5006931;28;20438;-89
2022/10/14 11:23:06;;;;;;;15.88;14.63;;;;;;;;;;4992009;28;20435;-89
2022/10/14 11:25:37;;;;;;;17.60;16.00;;;;;;;;;;4991923;28;20412;-89
2022/10/14 11:28:09;;;;;;;17.60;16.00;;;;;;;;;;4992398;28;20428;-77
2022/10/14 11:30:53;;;;;;;18.00;16.45;;;;;;;;;;4993470;28;20409;-77
2022/10/14 11:33:25;;;;;;;17.30;15.80;;;;;;;;;;4992518;28;20430;-77
2022/10/14 11:36:00;;;;;;;17.63;16.05;;;;;;;;;;5010212;28;20419;-77
2022/10/14 11:38:45;;;;;;;17.65;16.05;;;;;;;;;;4976845;28;20465;-77
2022/10/14 11:41:26;;;;;;;16.17;14.75;;;;;;;;;;4998175;28;20478;-78
2022/10/14 11:44:14;;;;;;;15.80;14.40;;;;;;;;;;4995073;28;20452;-77
2022/10/14 11:46:44;;;;;;;16.92;15.43;;;;;;;;;;4997252;28;20428;-77
2022/10/14 11:49:26;;;;;;;17.55;16.13;;;;;;;;;;5006504;28;20474;-77
2022/10/14 11:51:57;;;;;;;16.48;15.07;;;;;;;;;;4996095;28;20464;-77
2022/10/14 11:54:29;;;;;;;15.85;14.45;;;;;;;;;;4994629;28;20508;-78
2022/10/14 11:56:55;;;;;;;15.35;14.02;;;;;;;;;;5011657;28;20481;-79
2022/10/14 11:59:30;;;;;;;15.50;14.20;;;;;;;;;;5004716;28;20405;-79
2022/10/14 12:02:03;;;;;;;15.07;13.75;;;;;;;;;;4995288;28;20412;-81
2022/10/14 12:04:37;;;;;;;16.15;14.75;;;;;;;;;;4994680;28;20421;-82
2022/10/14 12:07:16;;;;;;;17.30;15.70;;;;;;;;;;5009847;28;20469;-82
2022/10/14 12:09:46;;;;;;;17.35;15.80;;;;;;;;;;4975416;28;20510;-81
2022/10/14 12:12:14;;;;;;;16.58;14.98;;;;;;;;;;4991426;28;20523;-81
2022/10/14 12:14:45;;;;;;;17.48;15.88;;;;;;;;;;4997497;28;21016;-82
2022/10/14 12:17:17;;;;;;;16.38;14.90;;;;;;;;;;4996125;28;20413;-77
2022/10/14 12:19:44;;;;;;;12.93;11.73;;;;;;;;;;4999060;28;20201;-79
2022/10/14 12:22:13;;;;;;;12.20;11.00;;;;;;;;;;4976416;28;20190;-79
2022/10/14 12:24:41;;;;;;;12.13;10.90;;;;;;;;;;4976217;28;20201;-79
2022/10/14 12:27:09;;;;;;;11.73;10.57;;;;;;;;;;4993868;28;20186;-79
2022/10/14 12:29:37;;;;;;;10.80;9.80;;;;;;;;;;5009152;28;20240;-79
2022/10/14 12:32:03;;;;;;;11.03;10.00;;;;;;;;;;4999579;28;20244;-80
2022/10/14 12:34:33;;;;;;;10.10;9.20;;;;;;;;;;4993881;28;20202;-79
2022/10/14 12:37:00;;;;;;;10.20;9.30;;;;;;;;;;4994413;28;20178;-79
2022/10/14 12:39:31;;;;;;;10.10;9.20;;;;;;;;;;4979097;28;20194;-80
2022/10/14 12:42:03;;;;;;;10.70;9.80;;;;;;;;;;4992799;28;20191;-79
2022/10/14 12:44:50;;;;;;;11.40;10.30;;;;;;;;;;4997431;28;20212;-79
2022/10/14 12:47:30;;;;;;;10.60;9.70;;;;;;;;;;4994939;28;20236;-80
2022/10/14 12:49:58;;;;;;;9.77;8.87;;;;;;;;;;4995289;28;20193;-80
2022/10/14 12:52:32;;;;;;;9.57;8.67;;;;;;;;;;4995770;28;20210;-90
2022/10/14 12:54:59;;;;;;;8.03;7.33;;;;;;;;;;4997057;28;20273;-90
2022/10/14 12:57:35;;;;;;;7.47;6.87;;;;;;;;;;4999325;28;20178;-90
2022/10/14 13:00:06;;;;;;;7.57;6.87;;;;;;;;;;4995108;28;20181;-88
2022/10/14 13:02:37;;;;;;;7.27;6.57;;;;;;;;;;4996824;28;20178;-77
2022/10/14 13:05:08;;;;;;;7.00;6.50;;;;;;;;;;4994724;28;20186;-77
2022/10/14 13:07:34;;;;;;;7.73;6.90;;;;;;;;;;4991833;28;20190;-79
2022/10/14 13:10:20;;;;;;;6.90;6.30;;;;;;;;;;5001559;28;20192;-80
2022/10/14 13:12:46;;;;;;;6.77;6.20;;;;;;;;;;5015213;28;20227;-79
2022/10/14 13:15:34;;;;;;;7.27;6.57;;;;;;;;;;4995251;28;20189;-80
2022/10/14 13:18:20;;;;;;;6.73;6.13;;;;;;;;;;4994590;28;20190;-80
2022/10/14 13:20:46;;;;;;;6.03;5.53;;;;;;;;;;5009971;28;20181;-80
2022/10/14 13:23:15;;;;;;;5.83;5.30;;;;;;;;;;4994712;28;20201;-80
2022/10/14 13:25:42;;;;;;;6.70;6.10;;;;;;;;;;4994380;28;20200;-78
2022/10/14 13:28:27;;;;;;;6.77;6.10;;;;;;;;;;5003053;28;20190;-78
2022/10/14 13:30:58;;;;;;;6.13;5.63;;;;;;;;;;4978146;28;20174;-77
2022/10/14 13:33:31;;;;;;;6.87;6.23;;;;;;;;;;4974911;28;20299;-77
2022/10/14 13:36:00;;;;;;;6.77;6.17;;;;;;;;;;5000563;28;20219;-77
2022/10/14 13:38:27;;;;;;;6.53;5.93;;;;;;;;;;5005626;28;20209;-77
2022/10/14 13:40:54;;;;;;;7.70;7.07;;;;;;;;;;4978234;28;20178;-82
2022/10/14 13:43:38;;;;;;;7.90;7.10;;;;;;;;;;4993908;28;20192;-82
2022/10/14 13:46:16;;;;;;;8.23;7.43;;;;;;;;;;4993673;28;20194;-83
2022/10/14 13:48:46;;;;;;;8.30;7.50;;;;;;;;;;4988341;28;20197;-83
2022/10/14 13:51:16;;;;;;;8.13;7.33;;;;;;;;;;4993985;28;20273;-89
2022/10/14 13:53:51;;;;;;;9.93;8.57;;;;;;;;;;4993928;28;20209;-89
2022/10/14 13:56:22;;;;;;;9.20;8.40;;;;;;;;;;4993890;28;20200;-90
2022/10/14 13:58:48;;;;;;;9.53;8.60;;;;;;;;;;4995256;28;20205;-83
2022/10/14 14:01:15;;;;;;;8.90;8.10;;;;;;;;;;4994217;28;20186;-78
2022/10/14 14:03:44;;;;;;;9.90;8.67;;;;;;;;;;4977936;28;20192;-77
2022/10/14 14:06:13;;;;;;;10.30;9.40;;;;;;;;;;4977023;28;20348;-77
2022/10/14 14:08:45;;;;;;;11.10;9.13;;;;;;;;;;4995046;28;20178;-77
2022/10/14 14:11:16;;;;;;;9.70;8.80;;;;;;;;;;4994136;28;20182;-77
2022/10/14 14:13:58;;;;;;;9.90;9.00;;;;;;;;;;4994116;28;20318;-77
2022/10/14 14:16:27;;;;;;;10.23;9.17;;;;;;;;;;4993082;28;20173;-83
2022/10/14 14:18:53;;;;;;;10.47;9.40;;;;;;;;;;4979702;28;20257;-83
2022/10/14 14:21:24;;;;;;;10.10;9.20;;;;;;;;;;4986327;28;20190;-83
2022/10/14 14:23:52;;;;;;;11.23;10.13;;;;;;;;;;4993200;28;20210;-83
2022/10/14 14:26:18;;;;;;;11.17;10.10;;;;;;;;;;4994579;28;20181;-83
2022/10/14 14:28:48;;;;;;;12.03;10.43;;;;;;;;;;4993693;28;20182;-83
2022/10/14 14:31:16;;;;;;;14.67;10.50;;;;;;;;;;4977882;28;20248;-78